sensor_id;sensor_type;location;lat;lon;timestamp;pressure;altitude;pressure_sealevel;temperature;humidity
8253;BME280;61313;48.396;10.008;2023-05-27T00:00:57;96846.34;;;15.88;47.81
8253;BME280;61313;48.396;10.008;2023-05-27T00:03:22;96841.50;;;15.49;48.72
8253;BME280;61313;48.396;10.008;2023-05-27T00:05:47;96845.84;;;15.66;48.55
8253;BME280;61313;48.396;10.008;2023-05-27T00:08:13;96836.28;;;15.63;48.36
8253;BME280;61313;48.396;10.008;2023-05-27T00:10:38;96842.28;;;15.67;48.02
8253;BME280;61313;48.396;10.008;2023-05-27T00:13:04;96839.03;;;15.62;48.52
8253;BME280;61313;48.396;10.008;2023-05-27T00:15:29;96839.91;;;15.46;49.04
8253;BME280;61313;48.396;10.008;2023-05-27T00:17:57;96838.19;;;15.45;48.98
8253;BME280;61313;48.396;10.008;2023-05-27T00:20:23;96834.28;;;15.53;48.54
8253;BME280;61313;48.396;10.008;2023-05-27T00:22:50;96843.50;;;15.45;48.79
8253;BME280;61313;48.396;10.008;2023-05-27T00:25:16;96837.09;;;15.50;48.64
8253;BME280;61313;48.396;10.008;2023-05-27T00:27:41;96834.97;;;15.40;48.74
8253;BME280;61313;48.396;10.008;2023-05-27T00:30:07;96838.53;;;15.39;48.85
8253;BME280;61313;48.396;10.008;2023-05-27T00:32:33;96844.34;;;15.30;49.07
8253;BME280;61313;48.396;10.008;2023-05-27T00:34:58;96832.47;;;15.37;48.67
8253;BME280;61313;48.396;10.008;2023-05-27T00:37:24;96845.34;;;15.12;49.19
8253;BME280;61313;48.396;10.008;2023-05-27T00:39:49;96844.59;;;15.10;49.45
8253;BME280;61313;48.396;10.008;2023-05-27T00:42:15;96836.16;;;15.03;49.53
8253;BME280;61313;48.396;10.008;2023-05-27T00:44:41;96826.69;;;14.99;49.10
8253;BME280;61313;48.396;10.008;2023-05-27T00:47:07;96835.88;;;14.92;49.39
8253;BME280;61313;48.396;10.008;2023-05-27T00:49:33;96840.22;;;14.93;49.43
8253;BME280;61313;48.396;10.008;2023-05-27T00:51:58;96831.72;;;15.03;49.12
8253;BME280;61313;48.396;10.008;2023-05-27T00:54:25;96832.91;;;14.98;49.38
8253;BME280;61313;48.396;10.008;2023-05-27T00:56:51;96830.75;;;15.04;49.08
8253;BME280;61313;48.396;10.008;2023-05-27T00:59:16;96831.38;;;15.10;49.41
8253;BME280;61313;48.396;10.008;2023-05-27T01:01:42;96825.31;;;14.92;49.34
8253;BME280;61313;48.396;10.008;2023-05-27T01:04:09;96834.69;;;14.81;49.75
8253;BME280;61313;48.396;10.008;2023-05-27T01:09:35;96834.31;;;14.72;50.04
8253;BME280;61313;48.396;10.008;2023-05-27T01:15:05;96823.13;;;14.67;49.82
8253;BME280;61313;48.396;10.008;2023-05-27T01:17:33;96814.56;;;14.79;49.56
8253;BME280;61313;48.396;10.008;2023-05-27T01:20:03;96813.63;;;14.80;49.45
8253;BME280;61313;48.396;10.008;2023-05-27T01:22:31;96819.56;;;14.68;49.99
8253;BME280;61313;48.396;10.008;2023-05-27T01:24:57;96817.94;;;14.65;50.26
8253;BME280;61313;48.396;10.008;2023-05-27T01:27:23;96814.69;;;14.60;49.95
8253;BME280;61313;48.396;10.008;2023-05-27T01:29:52;96816.56;;;14.74;49.54
8253;BME280;61313;48.396;10.008;2023-05-27T01:32:24;96818.34;;;14.57;50.15
8253;BME280;61313;48.396;10.008;2023-05-27T01:35:13;96815.53;;;14.60;49.52
8253;BME280;61313;48.396;10.008;2023-05-27T01:37:41;96813.22;;;14.54;50.27
8253;BME280;61313;48.396;10.008;2023-05-27T01:40:08;96808.16;;;14.50;50.15
8253;BME280;61313;48.396;10.008;2023-05-27T01:42:38;96808.56;;;14.42;50.35
8253;BME280;61313;48.396;10.008;2023-05-27T01:45:06;96808.59;;;14.25;50.76
8253;BME280;61313;48.396;10.008;2023-05-27T01:47:33;96801.66;;;14.39;50.50
8253;BME280;61313;48.396;10.008;2023-05-27T01:49:59;96806.09;;;14.39;50.37
8253;BME280;61313;48.396;10.008;2023-05-27T01:52:25;96805.16;;;14.40;49.90
8253;BME280;61313;48.396;10.008;2023-05-27T01:54:51;96803.09;;;14.29;50.68
8253;BME280;61313;48.396;10.008;2023-05-27T01:57:17;96805.72;;;14.29;50.32
8253;BME280;61313;48.396;10.008;2023-05-27T01:59:42;96802.66;;;14.37;50.42
8253;BME280;61313;48.396;10.008;2023-05-27T02:02:08;96803.31;;;14.25;50.43
8253;BME280;61313;48.396;10.008;2023-05-27T02:04:34;96810.34;;;14.24;50.35
8253;BME280;61313;48.396;10.008;2023-05-27T02:07:00;96806.34;;;14.17;51.18
8253;BME280;61313;48.396;10.008;2023-05-27T02:09:25;96801.75;;;14.21;51.01
8253;BME280;61313;48.396;10.008;2023-05-27T02:11:51;96801.47;;;14.09;51.34
8253;BME280;61313;48.396;10.008;2023-05-27T02:14:16;96796.88;;;14.13;51.11
8253;BME280;61313;48.396;10.008;2023-05-27T02:16:42;96805.34;;;14.02;51.19
8253;BME280;61313;48.396;10.008;2023-05-27T02:19:08;96800.06;;;14.02;51.31
8253;BME280;61313;48.396;10.008;2023-05-27T02:21:34;96794.13;;;13.98;50.92
8253;BME280;61313;48.396;10.008;2023-05-27T02:24:01;96796.28;;;13.90;51.10
8253;BME280;61313;48.396;10.008;2023-05-27T02:26:27;96794.03;;;13.83;51.15
8253;BME280;61313;48.396;10.008;2023-05-27T02:28:52;96793.31;;;13.79;51.59
8253;BME280;61313;48.396;10.008;2023-05-27T02:31:18;96793.47;;;13.76;51.95
8253;BME280;61313;48.396;10.008;2023-05-27T02:33:44;96795.28;;;13.75;51.78
8253;BME280;61313;48.396;10.008;2023-05-27T02:36:09;96792.00;;;13.88;51.31
8253;BME280;61313;48.396;10.008;2023-05-27T02:38:35;96797.81;;;13.94;51.46
8253;BME280;61313;48.396;10.008;2023-05-27T02:41:01;96799.53;;;13.95;51.00
8253;BME280;61313;48.396;10.008;2023-05-27T02:43:26;96792.69;;;14.09;50.98
8253;BME280;61313;48.396;10.008;2023-05-27T02:45:51;96805.81;;;13.93;51.57
8253;BME280;61313;48.396;10.008;2023-05-27T02:48:17;96792.00;;;13.88;50.80
8253;BME280;61313;48.396;10.008;2023-05-27T02:50:42;96799.06;;;13.87;51.59
8253;BME280;61313;48.396;10.008;2023-05-27T02:53:08;96796.81;;;13.80;51.34
8253;BME280;61313;48.396;10.008;2023-05-27T02:55:33;96792.78;;;13.90;51.42
8253;BME280;61313;48.396;10.008;2023-05-27T02:57:59;96801.16;;;13.81;51.31
8253;BME280;61313;48.396;10.008;2023-05-27T03:00:24;96800.31;;;13.80;51.69
8253;BME280;61313;48.396;10.008;2023-05-27T03:02:50;96796.19;;;13.74;51.84
8253;BME280;61313;48.396;10.008;2023-05-27T03:05:16;96793.09;;;13.66;51.92
8253;BME280;61313;48.396;10.008;2023-05-27T03:07:41;96798.38;;;13.66;52.20
8253;BME280;61313;48.396;10.008;2023-05-27T03:10:07;96790.22;;;13.71;52.22
8253;BME280;61313;48.396;10.008;2023-05-27T03:12:33;96789.50;;;13.67;51.55
8253;BME280;61313;48.396;10.008;2023-05-27T03:14:59;96797.97;;;13.74;52.03
8253;BME280;61313;48.396;10.008;2023-05-27T03:17:24;96790.38;;;13.68;51.78
8253;BME280;61313;48.396;10.008;2023-05-27T03:19:50;96791.28;;;13.67;51.26
8253;BME280;61313;48.396;10.008;2023-05-27T03:22:16;96790.44;;;13.49;51.75
8253;BME280;61313;48.396;10.008;2023-05-27T03:24:41;96795.56;;;13.52;51.70
8253;BME280;61313;48.396;10.008;2023-05-27T03:27:07;96792.53;;;13.60;51.99
8253;BME280;61313;48.396;10.008;2023-05-27T03:29:32;96787.09;;;13.63;51.47
8253;BME280;61313;48.396;10.008;2023-05-27T03:31:58;96782.59;;;13.47;52.14
8253;BME280;61313;48.396;10.008;2023-05-27T03:34:23;96783.56;;;13.64;51.06
8253;BME280;61313;48.396;10.008;2023-05-27T03:36:49;96791.13;;;13.70;50.96
8253;BME280;61313;48.396;10.008;2023-05-27T03:39:15;96786.25;;;13.62;50.82
8253;BME280;61313;48.396;10.008;2023-05-27T03:41:42;96790.91;;;13.40;51.45
8253;BME280;61313;48.396;10.008;2023-05-27T03:44:07;96776.94;;;13.55;51.01
8253;BME280;61313;48.396;10.008;2023-05-27T03:46:33;96783.28;;;13.51;51.21
8253;BME280;61313;48.396;10.008;2023-05-27T03:48:59;96782.69;;;13.63;51.13
8253;BME280;61313;48.396;10.008;2023-05-27T03:51:25;96784.06;;;13.53;51.95
8253;BME280;61313;48.396;10.008;2023-05-27T03:53:50;96780.69;;;13.68;51.18
8253;BME280;61313;48.396;10.008;2023-05-27T03:56:16;96784.16;;;13.69;50.73
8253;BME280;61313;48.396;10.008;2023-05-27T03:58:42;96792.53;;;13.77;50.67
8253;BME280;61313;48.396;10.008;2023-05-27T04:01:07;96787.97;;;13.81;50.22
8253;BME280;61313;48.396;10.008;2023-05-27T04:03:33;96793.47;;;13.76;50.65
8253;BME280;61313;48.396;10.008;2023-05-27T04:05:59;96782.59;;;13.65;50.11
8253;BME280;61313;48.396;10.008;2023-05-27T04:08:25;96785.56;;;13.76;50.34
8253;BME280;61313;48.396;10.008;2023-05-27T04:10:53;96788.75;;;13.83;50.86
8253;BME280;61313;48.396;10.008;2023-05-27T04:13:19;96791.94;;;13.89;50.15
8253;BME280;61313;48.396;10.008;2023-05-27T04:15:44;96793.00;;;13.85;50.20
8253;BME280;61313;48.396;10.008;2023-05-27T04:18:11;96792.63;;;13.75;50.52
8253;BME280;61313;48.396;10.008;2023-05-27T04:20:40;96791.63;;;13.78;50.56
8253;BME280;61313;48.396;10.008;2023-05-27T04:23:08;96791.06;;;14.06;49.43
8253;BME280;61313;48.396;10.008;2023-05-27T04:25:33;96787.91;;;14.33;49.13
8253;BME280;61313;48.396;10.008;2023-05-27T04:28:02;96793.41;;;14.46;49.09
8253;BME280;61313;48.396;10.008;2023-05-27T04:30:31;96793.00;;;14.53;48.48
8253;BME280;61313;48.396;10.008;2023-05-27T04:32:58;96788.03;;;14.65;48.03
8253;BME280;61313;48.396;10.008;2023-05-27T04:35:24;96788.88;;;14.81;47.74
8253;BME280;61313;48.396;10.008;2023-05-27T04:37:50;96786.13;;;14.67;47.81
8253;BME280;61313;48.396;10.008;2023-05-27T04:40:16;96795.25;;;14.61;48.12
8253;BME280;61313;48.396;10.008;2023-05-27T04:42:41;96787.03;;;14.67;47.79
8253;BME280;61313;48.396;10.008;2023-05-27T04:45:09;96790.00;;;14.77;47.37
8253;BME280;61313;48.396;10.008;2023-05-27T04:47:36;96786.59;;;15.07;46.73
8253;BME280;61313;48.396;10.008;2023-05-27T04:50:03;96788.13;;;14.95;47.21
8253;BME280;61313;48.396;10.008;2023-05-27T04:52:29;96784.13;;;15.03;46.85
8253;BME280;61313;48.396;10.008;2023-05-27T04:54:55;96784.72;;;15.09;47.10
8253;BME280;61313;48.396;10.008;2023-05-27T04:57:23;96782.41;;;14.71;47.57
8253;BME280;61313;48.396;10.008;2023-05-27T04:59:48;96786.53;;;15.08;46.75
8253;BME280;61313;48.396;10.008;2023-05-27T05:02:34;96784.72;;;15.40;46.16
8253;BME280;61313;48.396;10.008;2023-05-27T05:05:07;96786.94;;;15.16;46.24
8253;BME280;61313;48.396;10.008;2023-05-27T05:07:36;96783.53;;;15.30;46.30
8253;BME280;61313;48.396;10.008;2023-05-27T05:10:07;96781.63;;;15.48;45.68
8253;BME280;61313;48.396;10.008;2023-05-27T05:12:33;96778.28;;;15.60;45.18
8253;BME280;61313;48.396;10.008;2023-05-27T05:14:59;96782.78;;;15.58;45.63
8253;BME280;61313;48.396;10.008;2023-05-27T05:17:25;96795.50;;;15.52;45.66
8253;BME280;61313;48.396;10.008;2023-05-27T05:19:53;96787.94;;;15.61;45.13
8253;BME280;61313;48.396;10.008;2023-05-27T05:22:19;96784.94;;;15.52;45.09
8253;BME280;61313;48.396;10.008;2023-05-27T05:24:47;96794.16;;;15.44;45.79
8253;BME280;61313;48.396;10.008;2023-05-27T05:27:13;96792.59;;;15.26;45.88
8253;BME280;61313;48.396;10.008;2023-05-27T05:29:38;96791.88;;;15.22;46.18
8253;BME280;61313;48.396;10.008;2023-05-27T05:32:04;96789.94;;;15.26;46.57
8253;BME280;61313;48.396;10.008;2023-05-27T05:34:30;96791.63;;;15.11;46.75
8253;BME280;61313;48.396;10.008;2023-05-27T05:36:55;96786.41;;;15.25;46.33
8253;BME280;61313;48.396;10.008;2023-05-27T05:39:21;96787.00;;;15.46;46.36
8253;BME280;61313;48.396;10.008;2023-05-27T05:41:47;96792.72;;;15.55;46.00
8253;BME280;61313;48.396;10.008;2023-05-27T05:44:12;96793.41;;;15.42;45.75
8253;BME280;61313;48.396;10.008;2023-05-27T05:46:38;96805.19;;;15.21;46.19
8253;BME280;61313;48.396;10.008;2023-05-27T05:49:04;96799.13;;;15.51;45.82
8253;BME280;61313;48.396;10.008;2023-05-27T05:51:30;96790.94;;;15.39;46.47
8253;BME280;61313;48.396;10.008;2023-05-27T05:53:57;96784.34;;;15.62;45.97
8253;BME280;61313;48.396;10.008;2023-05-27T05:56:23;96788.53;;;15.51;45.64
8253;BME280;61313;48.396;10.008;2023-05-27T05:58:48;96787.38;;;15.86;45.24
8253;BME280;61313;48.396;10.008;2023-05-27T06:01:15;96785.53;;;16.17;45.02
8253;BME280;61313;48.396;10.008;2023-05-27T06:03:40;96781.84;;;16.05;44.70
8253;BME280;61313;48.396;10.008;2023-05-27T06:06:06;96800.78;;;15.83;45.62
8253;BME280;61313;48.396;10.008;2023-05-27T06:08:31;96798.09;;;15.37;46.42
8253;BME280;61313;48.396;10.008;2023-05-27T06:10:57;96802.59;;;15.67;45.93
8253;BME280;61313;48.396;10.008;2023-05-27T06:13:22;96801.72;;;15.82;46.29
8253;BME280;61313;48.396;10.008;2023-05-27T06:15:48;96805.31;;;15.81;46.40
8253;BME280;61313;48.396;10.008;2023-05-27T06:18:13;96800.84;;;16.12;45.38
8253;BME280;61313;48.396;10.008;2023-05-27T06:20:39;96808.41;;;15.74;45.64
8253;BME280;61313;48.396;10.008;2023-05-27T06:23:04;96800.38;;;15.59;46.28
8253;BME280;61313;48.396;10.008;2023-05-27T06:25:30;96805.16;;;15.99;45.69
8253;BME280;61313;48.396;10.008;2023-05-27T06:27:56;96795.38;;;16.29;44.78
8253;BME280;61313;48.396;10.008;2023-05-27T06:30:21;96798.63;;;16.35;45.36
8253;BME280;61313;48.396;10.008;2023-05-27T06:32:46;96800.63;;;15.71;46.38
8253;BME280;61313;48.396;10.008;2023-05-27T06:35:12;96799.44;;;16.06;46.49
8253;BME280;61313;48.396;10.008;2023-05-27T06:37:37;96789.16;;;16.45;45.47
8253;BME280;61313;48.396;10.008;2023-05-27T06:40:03;96787.63;;;16.26;44.80
8253;BME280;61313;48.396;10.008;2023-05-27T06:42:29;96798.00;;;16.01;46.10
8253;BME280;61313;48.396;10.008;2023-05-27T06:44:55;96796.16;;;16.32;45.51
8253;BME280;61313;48.396;10.008;2023-05-27T06:47:20;96797.75;;;16.20;45.55
8253;BME280;61313;48.396;10.008;2023-05-27T06:49:46;96792.09;;;16.26;46.03
8253;BME280;61313;48.396;10.008;2023-05-27T06:52:11;96796.94;;;16.62;44.82
8253;BME280;61313;48.396;10.008;2023-05-27T06:54:37;96797.22;;;16.58;45.04
8253;BME280;61313;48.396;10.008;2023-05-27T06:57:03;96790.59;;;16.79;45.14
8253;BME280;61313;48.396;10.008;2023-05-27T06:59:28;96792.19;;;16.67;44.77
8253;BME280;61313;48.396;10.008;2023-05-27T07:01:54;96788.59;;;16.68;45.19
8253;BME280;61313;48.396;10.008;2023-05-27T07:04:21;96792.78;;;16.87;44.42
8253;BME280;61313;48.396;10.008;2023-05-27T07:06:47;96792.50;;;17.33;43.79
8253;BME280;61313;48.396;10.008;2023-05-27T07:09:12;96790.59;;;17.35;43.60
8253;BME280;61313;48.396;10.008;2023-05-27T07:11:39;96800.25;;;17.36;44.02
8253;BME280;61313;48.396;10.008;2023-05-27T07:14:04;96800.13;;;17.52;43.63
8253;BME280;61313;48.396;10.008;2023-05-27T07:16:30;96796.66;;;17.64;43.31
8253;BME280;61313;48.396;10.008;2023-05-27T07:18:55;96794.13;;;17.63;43.54
8253;BME280;61313;48.396;10.008;2023-05-27T07:21:21;96796.00;;;17.88;43.07
8253;BME280;61313;48.396;10.008;2023-05-27T07:23:47;96792.53;;;17.73;43.98
8253;BME280;61313;48.396;10.008;2023-05-27T07:26:12;96798.84;;;18.12;49.17
8253;BME280;61313;48.396;10.008;2023-05-27T07:28:37;96795.44;;;18.48;42.40
8253;BME280;61313;48.396;10.008;2023-05-27T07:31:04;96795.75;;;18.05;42.45
8253;BME280;61313;48.396;10.008;2023-05-27T07:33:30;96791.59;;;18.14;42.48
8253;BME280;61313;48.396;10.008;2023-05-27T07:35:55;96792.22;;;18.05;42.49
8253;BME280;61313;48.396;10.008;2023-05-27T07:38:21;96785.88;;;18.58;41.56
8253;BME280;61313;48.396;10.008;2023-05-27T07:40:46;96788.41;;;18.47;41.91
8253;BME280;61313;48.396;10.008;2023-05-27T07:43:11;96784.00;;;17.82;42.89
8253;BME280;61313;48.396;10.008;2023-05-27T07:45:37;96791.28;;;18.18;42.71
8253;BME280;61313;48.396;10.008;2023-05-27T07:48:02;96779.84;;;18.31;42.64
8253;BME280;61313;48.396;10.008;2023-05-27T07:50:28;96777.78;;;18.73;41.02
8253;BME280;61313;48.396;10.008;2023-05-27T07:52:53;96782.06;;;18.50;41.66
8253;BME280;61313;48.396;10.008;2023-05-27T07:55:19;96774.81;;;18.65;42.13
8253;BME280;61313;48.396;10.008;2023-05-27T07:57:44;96772.78;;;18.68;41.55
8253;BME280;61313;48.396;10.008;2023-05-27T08:00:10;96777.59;;;18.50;41.94
8253;BME280;61313;48.396;10.008;2023-05-27T08:02:36;96773.97;;;18.51;42.39
8253;BME280;61313;48.396;10.008;2023-05-27T08:05:02;96765.97;;;18.90;41.62
8253;BME280;61313;48.396;10.008;2023-05-27T08:07:29;96769.00;;;18.59;42.55
8253;BME280;61313;48.396;10.008;2023-05-27T08:09:54;96771.84;;;18.69;42.20
8253;BME280;61313;48.396;10.008;2023-05-27T08:12:20;96774.31;;;18.85;42.05
8253;BME280;61313;48.396;10.008;2023-05-27T08:14:47;96774.09;;;18.50;41.95
8253;BME280;61313;48.396;10.008;2023-05-27T08:17:16;96763.25;;;19.15;41.43
8253;BME280;61313;48.396;10.008;2023-05-27T08:19:41;96762.81;;;19.21;40.80
8253;BME280;61313;48.396;10.008;2023-05-27T08:22:07;96760.47;;;19.65;40.31
8253;BME280;61313;48.396;10.008;2023-05-27T08:24:36;96761.47;;;19.88;39.38
8253;BME280;61313;48.396;10.008;2023-05-27T08:27:01;96763.09;;;20.02;39.63
8253;BME280;61313;48.396;10.008;2023-05-27T08:29:28;96767.91;;;19.49;40.26
8253;BME280;61313;48.396;10.008;2023-05-27T08:31:56;96757.78;;;19.54;40.62
8253;BME280;61313;48.396;10.008;2023-05-27T08:34:21;96757.16;;;20.56;38.81
8253;BME280;61313;48.396;10.008;2023-05-27T08:36:47;96744.97;;;20.18;39.55
8253;BME280;61313;48.396;10.008;2023-05-27T08:39:12;96756.47;;;20.19;39.90
8253;BME280;61313;48.396;10.008;2023-05-27T08:41:38;96757.84;;;19.89;40.21
8253;BME280;61313;48.396;10.008;2023-05-27T08:44:05;96746.31;;;19.64;40.80
8253;BME280;61313;48.396;10.008;2023-05-27T08:46:32;96745.31;;;19.78;40.72
8253;BME280;61313;48.396;10.008;2023-05-27T08:48:58;96741.44;;;20.18;39.79
8253;BME280;61313;48.396;10.008;2023-05-27T08:51:23;96736.38;;;19.79;40.55
8253;BME280;61313;48.396;10.008;2023-05-27T08:53:49;96734.53;;;20.15;40.03
8253;BME280;61313;48.396;10.008;2023-05-27T08:56:15;96731.66;;;20.29;40.32
8253;BME280;61313;48.396;10.008;2023-05-27T08:58:44;96737.28;;;20.02;40.01
8253;BME280;61313;48.396;10.008;2023-05-27T09:01:09;96733.69;;;20.26;39.31
8253;BME280;61313;48.396;10.008;2023-05-27T09:03:36;96730.75;;;20.06;40.29
8253;BME280;61313;48.396;10.008;2023-05-27T09:06:02;96744.16;;;19.82;40.50
8253;BME280;61313;48.396;10.008;2023-05-27T09:08:30;96735.56;;;19.66;41.37
8253;BME280;61313;48.396;10.008;2023-05-27T09:10:55;96732.16;;;19.88;40.94
8253;BME280;61313;48.396;10.008;2023-05-27T09:13:28;96729.91;;;20.17;40.28
8253;BME280;61313;48.396;10.008;2023-05-27T09:16:02;96719.31;;;20.51;40.13
8253;BME280;61313;48.396;10.008;2023-05-27T09:18:33;96730.34;;;19.88;40.90
8253;BME280;61313;48.396;10.008;2023-05-27T09:20:59;96723.72;;;19.94;40.96
8253;BME280;61313;48.396;10.008;2023-05-27T09:23:24;96722.72;;;19.36;41.45
8253;BME280;61313;48.396;10.008;2023-05-27T09:25:51;96712.13;;;20.06;41.67
8253;BME280;61313;48.396;10.008;2023-05-27T09:28:25;96715.06;;;20.60;40.29
8253;BME280;61313;48.396;10.008;2023-05-27T09:31:01;96716.53;;;20.41;40.12
8253;BME280;61313;48.396;10.008;2023-05-27T09:33:35;96708.50;;;20.30;40.19
8253;BME280;61313;48.396;10.008;2023-05-27T09:36:03;96704.50;;;20.47;39.82
8253;BME280;61313;48.396;10.008;2023-05-27T09:38:34;96711.47;;;20.61;39.83
8253;BME280;61313;48.396;10.008;2023-05-27T09:41:01;96697.50;;;20.68;39.90
8253;BME280;61313;48.396;10.008;2023-05-27T09:43:27;96698.84;;;20.63;40.55
8253;BME280;61313;48.396;10.008;2023-05-27T09:46:02;96715.38;;;19.99;40.49
8253;BME280;61313;48.396;10.008;2023-05-27T09:48:32;96699.25;;;19.89;40.58
8253;BME280;61313;48.396;10.008;2023-05-27T09:50:58;96705.81;;;20.19;41.05
8253;BME280;61313;48.396;10.008;2023-05-27T09:53:26;96696.63;;;20.45;40.52
8253;BME280;61313;48.396;10.008;2023-05-27T09:55:55;96697.16;;;20.73;39.77
8253;BME280;61313;48.396;10.008;2023-05-27T09:58:21;96702.44;;;20.17;40.27
8253;BME280;61313;48.396;10.008;2023-05-27T10:00:48;96700.56;;;19.83;41.25
8253;BME280;61313;48.396;10.008;2023-05-27T10:03:14;96700.97;;;20.01;41.61
8253;BME280;61313;48.396;10.008;2023-05-27T10:05:42;96692.75;;;20.38;40.80
8253;BME280;61313;48.396;10.008;2023-05-27T10:08:08;96689.75;;;20.77;39.73
8253;BME280;61313;48.396;10.008;2023-05-27T10:10:34;96701.38;;;20.64;40.16
8253;BME280;61313;48.396;10.008;2023-05-27T10:13:00;96686.47;;;20.62;39.94
8253;BME280;61313;48.396;10.008;2023-05-27T10:15:33;96683.44;;;20.55;39.99
8253;BME280;61313;48.396;10.008;2023-05-27T10:18:01;96679.22;;;20.64;39.65
8253;BME280;61313;48.396;10.008;2023-05-27T10:22:56;96679.66;;;20.91;40.12
8253;BME280;61313;48.396;10.008;2023-05-27T10:25:25;96678.28;;;21.08;39.17
8253;BME280;61313;48.396;10.008;2023-05-27T10:28:00;96685.84;;;20.81;37.78
8253;BME280;61313;48.396;10.008;2023-05-27T10:30:25;96689.38;;;20.47;38.54
8253;BME280;61313;48.396;10.008;2023-05-27T10:32:53;96676.50;;;20.52;39.50
8253;BME280;61313;48.396;10.008;2023-05-27T10:35:19;96665.25;;;20.83;38.82
8253;BME280;61313;48.396;10.008;2023-05-27T10:37:46;96669.09;;;20.90;38.31
8253;BME280;61313;48.396;10.008;2023-05-27T10:40:12;96663.13;;;21.09;38.54
8253;BME280;61313;48.396;10.008;2023-05-27T10:42:37;96677.38;;;20.76;38.67
8253;BME280;61313;48.396;10.008;2023-05-27T10:45:08;96675.22;;;20.69;38.81
8253;BME280;61313;48.396;10.008;2023-05-27T10:47:36;96673.75;;;20.77;38.52
8253;BME280;61313;48.396;10.008;2023-05-27T10:50:13;96658.41;;;21.01;38.43
8253;BME280;61313;48.396;10.008;2023-05-27T10:52:40;96669.19;;;21.00;37.79
8253;BME280;61313;48.396;10.008;2023-05-27T10:55:05;96669.38;;;20.87;37.73
8253;BME280;61313;48.396;10.008;2023-05-27T10:57:31;96672.00;;;20.98;37.21
8253;BME280;61313;48.396;10.008;2023-05-27T11:00:02;96657.16;;;21.17;36.55
8253;BME280;61313;48.396;10.008;2023-05-27T11:02:35;96673.00;;;21.29;36.50
8253;BME280;61313;48.396;10.008;2023-05-27T11:05:08;96657.09;;;21.28;36.33
8253;BME280;61313;48.396;10.008;2023-05-27T11:07:36;96666.94;;;21.27;36.57
8253;BME280;61313;48.396;10.008;2023-05-27T11:10:02;96660.06;;;21.13;36.53
8253;BME280;61313;48.396;10.008;2023-05-27T11:12:27;96667.78;;;20.96;37.14
8253;BME280;61313;48.396;10.008;2023-05-27T11:14:55;96661.28;;;20.66;37.55
8253;BME280;61313;48.396;10.008;2023-05-27T11:17:21;96651.56;;;20.54;38.73
8253;BME280;61313;48.396;10.008;2023-05-27T11:19:47;96647.19;;;20.86;38.27
8253;BME280;61313;48.396;10.008;2023-05-27T11:22:16;96655.06;;;21.20;37.85
8253;BME280;61313;48.396;10.008;2023-05-27T11:24:43;96646.81;;;21.23;36.76
8253;BME280;61313;48.396;10.008;2023-05-27T11:27:14;96642.22;;;21.14;37.58
8253;BME280;61313;48.396;10.008;2023-05-27T11:29:49;96643.41;;;21.21;37.79
8253;BME280;61313;48.396;10.008;2023-05-27T11:32:16;96635.75;;;21.28;37.03
8253;BME280;61313;48.396;10.008;2023-05-27T11:34:45;96635.84;;;21.05;37.26
8253;BME280;61313;48.396;10.008;2023-05-27T11:37:12;96634.06;;;21.27;37.40
8253;BME280;61313;48.396;10.008;2023-05-27T11:39:51;96635.38;;;21.32;37.49
8253;BME280;61313;48.396;10.008;2023-05-27T11:42:22;96624.03;;;20.76;37.48
8253;BME280;61313;48.396;10.008;2023-05-27T11:44:52;96629.69;;;20.93;37.75
8253;BME280;61313;48.396;10.008;2023-05-27T11:47:18;96626.03;;;20.94;38.25
8253;BME280;61313;48.396;10.008;2023-05-27T11:49:44;96622.06;;;20.89;37.76
8253;BME280;61313;48.396;10.008;2023-05-27T11:52:10;96612.13;;;20.91;37.40
8253;BME280;61313;48.396;10.008;2023-05-27T11:54:37;96623.47;;;21.04;37.67
8253;BME280;61313;48.396;10.008;2023-05-27T11:57:03;96608.97;;;21.18;36.71
8253;BME280;61313;48.396;10.008;2023-05-27T11:59:33;96622.56;;;21.26;36.39
8253;BME280;61313;48.396;10.008;2023-05-27T12:01:58;96616.78;;;21.10;36.78
8253;BME280;61313;48.396;10.008;2023-05-27T12:04:24;96604.78;;;21.04;36.98
8253;BME280;61313;48.396;10.008;2023-05-27T12:06:49;96615.81;;;21.11;36.08
8253;BME280;61313;48.396;10.008;2023-05-27T12:09:16;96605.50;;;21.06;36.06
8253;BME280;61313;48.396;10.008;2023-05-27T12:11:41;96599.38;;;20.94;36.43
8253;BME280;61313;48.396;10.008;2023-05-27T12:14:07;96592.31;;;21.26;37.29
8253;BME280;61313;48.396;10.008;2023-05-27T12:16:33;96593.97;;;21.38;35.65
8253;BME280;61313;48.396;10.008;2023-05-27T12:18:58;96593.38;;;21.34;35.20
8253;BME280;61313;48.396;10.008;2023-05-27T12:21:24;96577.84;;;21.40;35.66
8253;BME280;61313;48.396;10.008;2023-05-27T12:23:50;96577.72;;;21.41;35.31
8253;BME280;61313;48.396;10.008;2023-05-27T12:26:16;96584.31;;;21.26;35.10
8253;BME280;61313;48.396;10.008;2023-05-27T12:28:42;96575.63;;;21.45;34.87
8253;BME280;61313;48.396;10.008;2023-05-27T12:31:07;96566.59;;;21.57;34.67
8253;BME280;61313;48.396;10.008;2023-05-27T12:33:33;96573.16;;;21.74;34.88
8253;BME280;61313;48.396;10.008;2023-05-27T12:36:00;96573.47;;;21.39;34.57
8253;BME280;61313;48.396;10.008;2023-05-27T12:38:25;96560.09;;;21.50;36.17
8253;BME280;61313;48.396;10.008;2023-05-27T12:40:51;96560.97;;;21.60;34.46
8253;BME280;61313;48.396;10.008;2023-05-27T12:43:20;96563.38;;;21.63;33.81
8253;BME280;61313;48.396;10.008;2023-05-27T12:45:45;96562.72;;;21.29;33.90
8253;BME280;61313;48.396;10.008;2023-05-27T12:48:14;96550.81;;;21.54;34.05
8253;BME280;61313;48.396;10.008;2023-05-27T12:50:40;96550.22;;;21.71;33.85
8253;BME280;61313;48.396;10.008;2023-05-27T12:53:07;96550.53;;;21.47;33.21
8253;BME280;61313;48.396;10.008;2023-05-27T12:55:33;96557.88;;;21.55;33.74
8253;BME280;61313;48.396;10.008;2023-05-27T12:57:58;96549.13;;;21.53;33.19
8253;BME280;61313;48.396;10.008;2023-05-27T13:00:24;96545.03;;;21.49;33.57
8253;BME280;61313;48.396;10.008;2023-05-27T13:02:50;96532.38;;;21.72;33.92
8253;BME280;61313;48.396;10.008;2023-05-27T13:05:16;96539.19;;;21.86;33.03